createdAt,value
2023-05-05T00:01:51.642Z,68.36
2023-05-05T00:04:26.479Z,68.27
2023-05-05T00:07:25.114Z,67.58
2023-05-05T00:09:53.678Z,67.53
2023-05-05T00:12:33.934Z,67.49
2023-05-05T00:15:12.178Z,68.46
2023-05-05T00:17:47.440Z,68.51
2023-05-05T00:21:10.154Z,69.13
2023-05-05T00:23:41.992Z,69.84
2023-05-05T00:26:19.573Z,70.15
2023-05-05T00:29:19.513Z,70.39
2023-05-05T00:32:12.388Z,70.14
2023-05-05T00:35:01.132Z,69.83
2023-05-05T00:37:40.920Z,69.95
2023-05-05T00:40:20.714Z,70.06
2023-05-05T00:42:52.600Z,69.73
2023-05-05T00:45:47.872Z,70.09
2023-05-05T00:48:33.997Z,69.81
2023-05-05T00:51:26.744Z,70.00
2023-05-05T00:53:59.065Z,70.30
2023-05-05T00:56:38.972Z,70.40
2023-05-05T00:59:18.721Z,70.23
2023-05-05T01:01:53.096Z,70.04
2023-05-05T01:04:32.366Z,70.07
2023-05-05T01:07:17.942Z,70.02
2023-05-05T01:10:20.114Z,69.68
2023-05-05T01:13:23.426Z,69.61
2023-05-05T01:16:06.353Z,69.22
2023-05-05T01:18:55.506Z,69.34
2023-05-05T01:22:01.468Z,69.47
2023-05-05T01:24:53.588Z,69.62
2023-05-05T01:27:55.721Z,69.76
2023-05-05T01:30:48.921Z,69.89
2023-05-05T01:33:37.473Z,70.00
2023-05-05T01:36:13.740Z,70.05
2023-05-05T01:38:48.612Z,70.13
2023-05-05T01:41:27.184Z,70.12
2023-05-05T01:44:14.724Z,69.99
2023-05-05T01:46:54.308Z,69.71
2023-05-05T01:49:33.188Z,70.17
2023-05-05T01:52:09.961Z,70.20
2023-05-05T01:54:43.151Z,70.32
2023-05-05T01:57:27.180Z,70.45
2023-05-05T02:00:00.146Z,70.58
2023-05-05T02:02:41.383Z,70.66
2023-05-05T02:05:23.056Z,70.68
2023-05-05T02:08:05.857Z,71.02
2023-05-05T02:10:48.135Z,70.93
2023-05-05T02:13:19.689Z,71.36
2023-05-05T02:15:51.122Z,71.51
2023-05-05T02:18:23.545Z,71.94
2023-05-05T02:20:55.411Z,72.07
2023-05-05T02:23:58.548Z,72.13
2023-05-05T02:26:38.158Z,71.81
2023-05-05T02:29:27.509Z,71.34
2023-05-05T02:32:02.834Z,70.97
2023-05-05T02:34:43.526Z,72.17
2023-05-05T02:37:27.472Z,72.30
2023-05-05T02:40:20.196Z,72.66
2023-05-05T02:42:53.860Z,72.80
2023-05-05T02:45:39.910Z,73.08
2023-05-05T02:48:13.418Z,72.99
2023-05-05T02:50:45.282Z,73.29
2023-05-05T02:53:28.286Z,72.83
2023-05-05T02:56:41.734Z,72.41
2023-05-05T02:59:31.519Z,71.63
2023-05-05T03:02:17.093Z,72.46
2023-05-05T03:05:26.135Z,72.58
2023-05-05T03:08:10.230Z,72.61
2023-05-05T03:11:04.266Z,72.96
2023-05-05T03:13:43.275Z,72.93
2023-05-05T03:16:18.870Z,73.05
2023-05-05T03:18:58.773Z,73.33
2023-05-05T03:22:00.132Z,73.13
2023-05-05T03:24:34.961Z,73.13
2023-05-05T03:27:12.658Z,73.01
2023-05-05T03:29:59.692Z,72.84
2023-05-05T03:32:51.872Z,72.60
2023-05-05T03:35:36.154Z,73.18
2023-05-05T03:38:19.189Z,72.83
2023-05-05T03:41:14.302Z,72.70
2023-05-05T03:43:46.542Z,72.80
2023-05-05T03:46:25.896Z,72.83
2023-05-05T03:48:57.397Z,73.06
2023-05-05T03:51:27.064Z,73.10
2023-05-05T03:53:58.926Z,73.15
2023-05-05T03:56:33.236Z,73.17
2023-05-05T03:59:10.821Z,73.35
2023-05-05T04:01:50.797Z,73.33
2023-05-05T04:04:28.643Z,73.36
2023-05-05T04:07:08.622Z,73.43
2023-05-05T04:09:48.994Z,73.41
2023-05-05T04:12:23.110Z,73.31
2023-05-05T04:14:55.169Z,73.33
2023-05-05T04:17:26.653Z,73.06
2023-05-05T04:20:15.259Z,72.98
2023-05-05T04:23:01.470Z,73.21
2023-05-05T04:25:46.644Z,73.36
2023-05-05T04:28:22.410Z,73.05
2023-05-05T04:30:51.819Z,73.06
2023-05-05T04:33:28.555Z,72.97
2023-05-05T04:35:58.613Z,72.91
2023-05-05T04:38:30.497Z,72.97
2023-05-05T04:41:06.471Z,72.82
2023-05-05T04:43:43.502Z,72.52
2023-05-05T04:46:17.487Z,72.22
2023-05-05T04:48:47.837Z,72.07
2023-05-05T04:51:32.736Z,71.70
2023-05-05T04:54:08.959Z,71.40
2023-05-05T04:56:40.020Z,70.93
2023-05-05T04:59:17.603Z,70.45
2023-05-05T05:01:49.284Z,70.46
2023-05-05T05:04:22.592Z,70.34
2023-05-05T05:06:53.275Z,69.78
2023-05-05T05:09:22.488Z,69.44
2023-05-05T05:11:54.244Z,69.17
2023-05-05T05:14:22.925Z,68.97
2023-05-05T05:16:52.772Z,68.78
2023-05-05T05:19:22.814Z,68.52
2023-05-05T05:21:51.269Z,68.32
2023-05-05T05:24:20.014Z,68.21
2023-05-05T05:26:53.431Z,68.14
2023-05-05T05:29:22.414Z,67.87
2023-05-05T05:31:53.929Z,67.55
2023-05-05T05:34:22.962Z,67.18
2023-05-05T05:36:52.155Z,66.84
2023-05-05T05:39:22.072Z,66.40
2023-05-05T05:41:54.233Z,66.15
2023-05-05T05:44:27.933Z,65.95
2023-05-05T05:47:00.717Z,65.78
2023-05-05T05:49:29.819Z,65.57
2023-05-05T05:51:58.588Z,65.48
2023-05-05T05:54:29.646Z,65.28
2023-05-05T05:56:58.334Z,65.07
2023-05-05T05:59:31.829Z,64.99
2023-05-05T06:02:06.403Z,64.69
2023-05-05T06:04:35.927Z,64.53
2023-05-05T06:07:12.847Z,64.23
2023-05-05T06:09:41.874Z,63.75
2023-05-05T06:12:13.082Z,63.60
2023-05-05T06:14:44.329Z,63.20
2023-05-05T06:17:13.312Z,62.87
2023-05-05T06:19:56.836Z,62.68
2023-05-05T06:22:25.735Z,62.47
2023-05-05T06:24:54.821Z,62.17
2023-05-05T06:27:26.898Z,61.88
2023-05-05T06:29:58.033Z,61.57
2023-05-05T06:32:30.094Z,61.31
2023-05-05T06:34:58.894Z,60.76
2023-05-05T06:37:27.579Z,60.26
2023-05-05T06:39:56.982Z,59.71
2023-05-05T06:42:25.490Z,59.18
2023-05-05T06:44:54.457Z,59.07
2023-05-05T06:47:23.377Z,58.56
2023-05-05T06:49:52.260Z,57.98
2023-05-05T06:52:23.204Z,57.26
2023-05-05T06:54:51.958Z,56.54
2023-05-05T06:57:20.478Z,56.14
2023-05-05T06:59:49.009Z,56.00
2023-05-05T07:02:17.722Z,55.58
2023-05-05T07:04:46.718Z,55.12
2023-05-05T07:07:15.320Z,54.68
2023-05-05T07:09:45.430Z,54.38
2023-05-05T07:12:14.126Z,53.97
2023-05-05T07:14:42.587Z,53.65
2023-05-05T07:17:13.638Z,53.27
2023-05-05T07:19:45.280Z,52.21
2023-05-05T07:22:13.973Z,52.08
2023-05-05T07:24:42.462Z,52.03
2023-05-05T07:27:11.244Z,51.58
2023-05-05T07:29:39.828Z,51.34
2023-05-05T07:32:08.768Z,51.28
2023-05-05T07:34:38.339Z,50.86
2023-05-05T07:37:07.626Z,50.54
2023-05-05T07:39:36.306Z,50.20
2023-05-05T07:42:04.994Z,49.95
2023-05-05T07:44:33.829Z,49.51
2023-05-05T07:47:02.668Z,48.25
2023-05-05T07:49:31.265Z,49.03
2023-05-05T07:51:59.846Z,49.30
2023-05-05T07:54:29.142Z,48.79
2023-05-05T07:56:58.649Z,47.96
2023-05-05T07:59:27.330Z,48.25
2023-05-05T08:01:55.915Z,48.05
2023-05-05T08:04:24.460Z,47.45
2023-05-05T08:06:53.074Z,47.68
2023-05-05T08:09:21.357Z,47.06
2023-05-05T08:11:49.847Z,46.32
2023-05-05T08:14:18.215Z,46.27
2023-05-05T08:16:46.802Z,45.87
2023-05-05T08:19:27.678Z,45.76
2023-05-05T08:21:57.755Z,45.75
2023-05-05T08:24:27.825Z,45.45
2023-05-05T08:26:57.028Z,44.90
2023-05-05T08:29:25.702Z,44.84
2023-05-05T08:31:54.703Z,44.85
2023-05-05T08:34:23.283Z,44.84
2023-05-05T08:36:51.864Z,44.62
2023-05-05T08:39:20.137Z,43.73
2023-05-05T08:41:48.855Z,43.81
2023-05-05T08:44:17.412Z,43.10
2023-05-05T08:46:47.143Z,43.03
2023-05-05T08:49:18.054Z,42.47
2023-05-05T08:51:47.848Z,42.76
2023-05-05T08:54:20.288Z,41.81
2023-05-05T08:56:53.335Z,41.90
2023-05-05T08:59:25.455Z,41.72
2023-05-05T09:01:54.506Z,41.58
2023-05-05T09:04:23.164Z,41.36
2023-05-05T09:06:51.648Z,41.55
2023-05-05T09:09:20.855Z,41.39
2023-05-05T09:11:52.924Z,41.27
2023-05-05T09:14:21.618Z,41.38
2023-05-05T09:16:50.137Z,41.05
2023-05-05T09:19:18.679Z,40.79
2023-05-05T09:21:49.268Z,40.73
2023-05-05T09:24:17.566Z,40.97
2023-05-05T09:26:47.490Z,41.27
2023-05-05T09:29:23.458Z,40.96
2023-05-05T09:32:05.994Z,40.61
2023-05-05T09:34:36.409Z,40.85
2023-05-05T09:37:06.618Z,40.42
2023-05-05T09:39:35.900Z,40.12
2023-05-05T09:42:04.589Z,40.12
2023-05-05T09:44:38.088Z,39.45
2023-05-05T09:47:18.066Z,38.93
2023-05-05T09:49:59.826Z,39.02
2023-05-05T09:52:29.239Z,38.39
2023-05-05T09:54:58.354Z,38.26
2023-05-05T09:57:29.190Z,38.19
2023-05-05T10:00:02.560Z,37.95
2023-05-05T10:02:39.567Z,38.06
2023-05-05T10:05:13.064Z,37.17
2023-05-05T10:07:44.125Z,36.82
2023-05-05T10:10:15.369Z,36.86
2023-05-05T10:12:46.492Z,36.64
2023-05-05T10:15:16.237Z,36.28
2023-05-05T10:20:22.522Z,36.20
2023-05-05T10:22:53.609Z,36.30
2023-05-05T10:25:31.628Z,36.30
2023-05-05T10:28:07.009Z,35.88
2023-05-05T10:30:43.527Z,35.85
2023-05-05T10:36:00.486Z,35.67
2023-05-05T10:38:32.296Z,35.08
2023-05-05T10:41:02.297Z,35.15
2023-05-05T10:43:31.635Z,35.16
2023-05-05T10:46:01.158Z,35.11
2023-05-05T10:48:35.279Z,35.02
2023-05-05T10:51:13.194Z,35.18
2023-05-05T10:54:13.414Z,35.35
2023-05-05T10:56:43.373Z,35.25
2023-05-05T10:59:36.785Z,35.01
2023-05-05T11:02:31.881Z,35.12
2023-05-05T11:05:10.772Z,34.97
2023-05-05T11:07:40.215Z,34.70
2023-05-05T11:10:10.952Z,34.77
2023-05-05T11:13:03.053Z,34.42
2023-05-05T11:15:31.650Z,34.40
2023-05-05T11:18:06.712Z,34.17
2023-05-05T11:20:36.296Z,34.19
2023-05-05T11:23:05.154Z,34.29
2023-05-05T11:25:37.549Z,34.51
2023-05-05T11:28:18.049Z,34.12
2023-05-05T11:30:56.865Z,34.14
2023-05-05T11:33:31.585Z,33.80
2023-05-05T11:36:03.393Z,33.74
2023-05-05T11:38:36.534Z,33.70
2023-05-05T11:41:19.957Z,33.36
2023-05-05T11:43:48.958Z,33.10
2023-05-05T11:46:18.405Z,32.76
2023-05-05T11:48:49.351Z,32.87
2023-05-05T11:51:19.359Z,32.80
2023-05-05T11:53:51.000Z,33.05
2023-05-05T11:56:23.941Z,32.92
2023-05-05T11:59:25.722Z,32.55
2023-05-05T12:01:54.280Z,32.48
2023-05-05T12:04:23.235Z,32.36
2023-05-05T12:06:51.758Z,32.22
2023-05-05T12:09:21.877Z,31.71
2023-05-05T12:11:51.479Z,31.64
2023-05-05T12:14:21.197Z,31.68
2023-05-05T12:17:01.742Z,31.36
2023-05-05T12:19:33.679Z,31.32
2023-05-05T12:22:04.775Z,30.98
2023-05-05T12:24:33.720Z,30.37
2023-05-05T12:27:09.835Z,29.73
2023-05-05T12:29:38.315Z,29.54
2023-05-05T12:32:07.141Z,29.43
2023-05-05T12:34:36.088Z,29.65
2023-05-05T12:37:05.185Z,30.00
2023-05-05T12:39:37.148Z,29.93
2023-05-05T12:42:06.613Z,29.78
2023-05-05T12:44:38.929Z,29.32
2023-05-05T12:47:07.812Z,29.64
2023-05-05T12:49:52.178Z,29.31
2023-05-05T12:52:21.458Z,29.62
2023-05-05T12:54:58.761Z,29.58
2023-05-05T12:57:27.578Z,29.73
2023-05-05T12:59:56.690Z,30.06
2023-05-05T13:02:35.444Z,29.95
2023-05-05T13:05:04.687Z,29.46
2023-05-05T13:07:33.140Z,28.85
2023-05-05T13:10:10.964Z,28.45
2023-05-05T13:12:39.361Z,28.46
2023-05-05T13:15:08.899Z,28.54
2023-05-05T13:17:37.751Z,28.26
2023-05-05T13:20:11.442Z,27.91
2023-05-05T13:22:40.523Z,28.37
2023-05-05T13:25:09.915Z,28.58
2023-05-05T13:27:38.933Z,28.50
2023-05-05T13:56:44.954Z,28.74
2023-05-05T13:59:13.439Z,28.07
2023-05-05T14:01:41.936Z,28.31
2023-05-05T14:04:10.657Z,28.03
2023-05-05T14:06:39.197Z,27.89
2023-05-05T14:09:08.141Z,27.72
2023-05-05T14:11:36.673Z,27.47
2023-05-05T14:14:05.151Z,27.36
2023-05-05T14:16:33.575Z,26.88
2023-05-05T14:19:02.101Z,26.64
2023-05-05T14:21:31.941Z,26.99
2023-05-05T14:24:00.832Z,27.21
2023-05-05T19:14:54.321Z,44.22
2023-05-05T19:17:23.968Z,44.79
2023-05-05T19:19:54.729Z,45.14
2023-05-05T19:22:26.188Z,45.30
2023-05-05T19:24:56.135Z,45.80
2023-05-05T19:27:26.364Z,46.16
2023-05-05T19:29:56.936Z,46.48
2023-05-05T19:32:27.412Z,46.63
2023-05-05T19:34:58.763Z,46.74
2023-05-05T19:37:28.232Z,46.80
2023-05-05T19:40:01.249Z,46.97
2023-05-05T19:42:33.781Z,47.09
2023-05-05T19:45:05.422Z,47.41
2023-05-05T19:47:37.253Z,47.67
2023-05-05T19:50:08.142Z,47.78
2023-05-05T19:52:41.932Z,47.91
2023-05-05T19:55:15.381Z,48.18
2023-05-05T19:57:47.380Z,48.42
2023-05-05T20:00:20.776Z,48.55
2023-05-05T20:02:50.692Z,48.85
2023-05-05T20:05:20.562Z,49.18
2023-05-05T20:07:51.596Z,49.35
2023-05-05T20:10:21.805Z,49.40
2023-05-05T20:12:53.441Z,49.72
2023-05-05T20:15:24.246Z,49.98
2023-05-05T20:17:55.712Z,50.10
2023-05-05T20:20:27.078Z,50.33
2023-05-05T20:22:57.993Z,50.52
2023-05-05T20:25:27.956Z,50.57
2023-05-05T20:27:57.687Z,50.54
2023-05-05T20:30:38.034Z,50.66
2023-05-05T20:33:08.046Z,50.86
2023-05-05T20:35:37.983Z,51.00
2023-05-05T20:38:10.439Z,51.18
2023-05-05T20:40:41.113Z,51.24
2023-05-05T20:43:13.128Z,51.43
2023-05-05T20:45:46.637Z,51.57
2023-05-05T20:48:16.806Z,51.72
2023-05-05T20:50:46.549Z,51.77
2023-05-05T20:53:19.402Z,51.86
2023-05-05T20:55:56.531Z,52.07
2023-05-05T20:58:26.828Z,52.10
2023-05-05T21:00:57.431Z,52.14
2023-05-05T21:03:30.043Z,52.13
2023-05-05T21:06:01.099Z,52.21
2023-05-05T21:08:32.244Z,52.32
2023-05-05T21:11:12.938Z,52.48
2023-05-05T21:13:42.214Z,52.57
2023-05-05T21:16:16.476Z,52.63
2023-05-05T21:18:48.993Z,52.75
2023-05-05T21:21:19.457Z,52.86
2023-05-05T21:23:48.526Z,53.03
2023-05-05T21:26:21.319Z,53.21
2023-05-05T21:28:50.415Z,53.32
2023-05-05T21:31:22.260Z,53.31
2023-05-05T21:33:51.558Z,53.40
2023-05-05T21:36:21.777Z,53.44
2023-05-05T21:38:51.298Z,53.61
2023-05-05T21:41:20.083Z,53.69
2023-05-05T21:43:59.116Z,53.81
2023-05-05T21:46:31.589Z,53.95
2023-05-05T21:49:00.925Z,54.27
2023-05-05T21:51:29.782Z,54.34
2023-05-05T21:53:59.185Z,54.50
2023-05-05T21:56:28.400Z,54.50
2023-05-05T21:59:01.478Z,54.75
2023-05-05T22:01:37.977Z,54.79
2023-05-05T22:04:08.650Z,54.79
2023-05-05T22:06:38.574Z,54.92
2023-05-05T22:09:19.262Z,55.06
2023-05-05T22:11:50.919Z,55.18
2023-05-05T22:14:22.438Z,55.33
2023-05-05T22:16:57.189Z,55.36
2023-05-05T22:19:26.029Z,55.36
2023-05-05T22:22:00.514Z,55.49
2023-05-05T22:24:30.223Z,55.55
2023-05-05T22:26:59.160Z,55.57
2023-05-05T22:29:30.966Z,55.66
2023-05-05T22:31:59.963Z,55.70
2023-05-05T22:34:31.731Z,55.66
2023-05-05T22:37:07.881Z,55.71
2023-05-05T22:39:36.668Z,55.84
2023-05-05T22:42:05.965Z,56.00
2023-05-05T22:44:54.912Z,56.01
2023-05-05T22:47:26.939Z,56.04
2023-05-05T22:49:59.265Z,56.24
2023-05-05T22:52:31.020Z,56.35
2023-05-05T22:55:01.816Z,56.38
2023-05-05T22:57:36.974Z,56.49
2023-05-05T23:00:08.804Z,56.60
2023-05-05T23:02:38.274Z,56.58
2023-05-05T23:05:10.834Z,56.66
2023-05-05T23:07:41.153Z,56.69
2023-05-05T23:10:14.213Z,56.75
2023-05-05T23:12:46.670Z,56.78
2023-05-05T23:15:18.799Z,56.87
2023-05-05T23:18:01.129Z,57.01
2023-05-05T23:20:42.987Z,57.10
2023-05-05T23:23:18.272Z,57.14
2023-05-05T23:25:52.143Z,57.25
2023-05-05T23:28:20.914Z,57.34
2023-05-05T23:30:52.644Z,57.31
2023-05-05T23:33:27.717Z,57.38
2023-05-05T23:35:59.566Z,57.35
2023-05-05T23:38:39.136Z,57.35
2023-05-05T23:41:19.172Z,57.42
2023-05-05T23:43:48.593Z,57.52
2023-05-05T23:46:17.637Z,57.63
2023-05-05T23:48:49.932Z,57.55
2023-05-05T23:51:19.050Z,57.67
2023-05-05T23:53:48.021Z,57.80
2023-05-05T23:56:19.176Z,57.85
2023-05-05T23:58:52.633Z,57.92
